Time;durP1;ratioP1;P1;durP2;ratioP2;P2;SDS_P1;SDS_P2;PMS_P1;PMS_P2;Temp;Humidity;BMP_temperature;BMP_pressure;BME280_temperature;BME280_humidity;BME280_pressure;Samples;Min_cycle;Max_cycle;Signal;HPM_P1;HPM_P2
2022/02/20 00:00:23;;;;;;;9.43;1.85;;;;;;;1.43;76.64;95494.84;5088633;28;20536;-75
2022/02/20 00:03:05;;;;;;;11.25;2.15;;;;;;;1.39;77.54;95496.25;5094952;28;20461;-75
2022/02/20 00:05:31;;;;;;;5.60;1.95;;;;;;;1.51;76.80;95497.19;5104632;28;20048;-75
2022/02/20 00:07:56;;;;;;;8.00;1.90;;;;;;;1.62;76.70;95502.66;5109476;28;20051;-75
2022/02/20 00:10:22;;;;;;;5.20;1.90;;;;;;;1.62;76.19;95498.25;5092003;28;20602;-76
2022/02/20 00:12:48;;;;;;;13.15;2.30;;;;;;;1.69;75.92;95493.03;5088515;28;20044;-76
2022/02/20 00:15:13;;;;;;;8.70;2.30;;;;;;;1.84;75.66;95480.53;5096621;28;20043;-76
2022/02/20 00:17:39;;;;;;;4.82;1.65;;;;;;;1.89;75.20;95483.25;5088467;28;20040;-75
2022/02/20 00:20:05;;;;;;;7.70;1.75;;;;;;;1.99;74.76;95497.56;5090384;28;20100;-75
2022/02/20 00:22:31;;;;;;;7.28;2.10;;;;;;;1.96;74.89;95488.38;5089807;28;20040;-76
2022/02/20 00:24:57;;;;;;;6.05;2.20;;;;;;;2.13;74.25;95493.81;5095105;28;20044;-75
2022/02/20 00:27:25;;;;;;;9.43;2.10;;;;;;;2.24;73.72;95490.50;5107933;28;20071;-76
2022/02/20 00:29:51;;;;;;;6.25;1.80;;;;;;;2.41;72.47;95492.50;5104931;28;20032;-76
2022/02/20 00:32:16;;;;;;;8.07;2.03;;;;;;;2.45;71.85;95485.84;5104774;28;20054;-76
2022/02/20 00:34:42;;;;;;;5.53;1.65;;;;;;;2.64;70.23;95488.44;5103153;28;20047;-76
2022/02/20 00:37:08;;;;;;;3.13;1.40;;;;;;;2.74;69.76;95478.28;5104277;28;20051;-75
2022/02/20 00:39:34;;;;;;;9.98;1.90;;;;;;;2.82;68.90;95477.22;5092169;28;20150;-76
2022/02/20 00:42:00;;;;;;;8.75;2.20;;;;;;;2.85;68.79;95480.16;5101516;28;20047;-76
2022/02/20 00:44:26;;;;;;;6.78;1.67;;;;;;;2.92;67.96;95475.66;5094372;28;20063;-76
2022/02/20 00:46:51;;;;;;;6.57;2.00;;;;;;;3.00;67.16;95486.75;5102535;28;20112;-76
2022/02/20 00:49:17;;;;;;;7.80;1.70;;;;;;;3.19;66.50;95475.28;5093868;28;20048;-76
2022/02/20 00:51:43;;;;;;;7.75;1.70;;;;;;;3.27;65.98;95482.75;5098970;28;20039;-76
2022/02/20 00:54:08;;;;;;;7.00;1.75;;;;;;;3.24;65.73;95480.59;5105791;28;20043;-76
2022/02/20 00:56:36;;;;;;;7.65;1.85;;;;;;;3.39;65.19;95474.97;5098555;28;20040;-76
2022/02/20 00:59:03;;;;;;;5.60;1.60;;;;;;;3.46;63.74;95469.66;5091832;28;20032;-75
2022/02/20 01:01:28;;;;;;;3.33;1.63;;;;;;;3.44;63.63;95482.09;5096616;28;20387;-76
2022/02/20 01:03:54;;;;;;;4.05;1.13;;;;;;;3.55;62.79;95483.94;5092217;28;20051;-76
2022/02/20 01:06:21;;;;;;;6.47;1.60;;;;;;;3.57;62.31;95468.09;5094893;28;20055;-75
2022/02/20 01:08:47;;;;;;;8.75;1.95;;;;;;;3.68;61.31;95467.31;5091353;28;20093;-75
2022/02/20 01:11:13;;;;;;;4.72;1.77;;;;;;;3.76;61.11;95489.59;5102701;28;20047;-75
2022/02/20 01:13:38;;;;;;;10.10;1.65;;;;;;;3.78;60.95;95487.56;5097225;28;20040;-76
2022/02/20 01:16:04;;;;;;;5.45;1.63;;;;;;;3.66;61.48;95484.16;5104993;28;20047;-75
2022/02/20 01:18:30;;;;;;;5.65;1.60;;;;;;;3.74;61.42;95491.63;5094532;28;20047;-76
2022/02/20 01:20:55;;;;;;;7.82;1.80;;;;;;;3.75;60.79;95493.19;5090865;28;20036;-76
2022/02/20 01:23:21;;;;;;;5.13;2.05;;;;;;;3.78;60.28;95488.34;5094660;28;20063;-76
2022/02/20 01:25:46;;;;;;;6.10;1.38;;;;;;;3.86;59.55;95489.03;5100707;28;20046;-76
2022/02/20 01:28:12;;;;;;;11.23;1.77;;;;;;;3.81;60.14;95495.69;5091816;28;20398;-76
2022/02/20 01:30:37;;;;;;;3.22;1.50;;;;;;;3.71;61.36;95502.50;5095839;28;20510;-76
2022/02/20 01:33:04;;;;;;;5.15;1.52;;;;;;;3.80;60.05;95516.75;5097255;28;20047;-75
2022/02/20 01:35:29;;;;;;;6.10;2.08;;;;;;;3.83;59.93;95516.28;5099204;28;20119;-75
2022/02/20 01:37:55;;;;;;;5.35;1.83;;;;;;;3.72;60.03;95519.69;5107376;28;20205;-76
2022/02/20 01:40:21;;;;;;;10.55;1.63;;;;;;;3.73;60.69;95531.69;5107117;28;20417;-75
2022/02/20 01:42:47;;;;;;;5.13;1.90;;;;;;;3.88;58.22;95534.66;5097037;28;20051;-76
2022/02/20 01:45:15;;;;;;;5.68;1.40;;;;;;;3.83;58.25;95550.13;5095579;28;20056;-75
2022/02/20 01:47:42;;;;;;;5.25;1.75;;;;;;;3.88;58.20;95550.28;5091022;28;20039;-75
2022/02/20 01:50:09;;;;;;;9.02;1.98;;;;;;;3.92;57.46;95550.59;5097322;28;20054;-75
2022/02/20 01:52:35;;;;;;;5.00;1.70;;;;;;;3.80;57.85;95558.41;5094921;28;20139;-75
2022/02/20 01:55:06;;;;;;;3.25;1.73;;;;;;;3.94;56.37;95557.16;5100411;28;20477;-75
2022/02/20 01:57:32;;;;;;;4.68;1.30;;;;;;;3.83;56.72;95552.75;5108300;28;20123;-76
2022/02/20 01:59:59;;;;;;;4.03;1.70;;;;;;;3.97;54.28;95548.91;5092016;28;20147;-75
2022/02/20 02:02:24;;;;;;;4.38;1.42;;;;;;;3.99;55.15;95557.28;5100967;28;20047;-75
2022/02/20 02:04:50;;;;;;;5.45;1.48;;;;;;;3.95;54.35;95556.16;5102888;28;20625;-76
2022/02/20 02:07:15;;;;;;;5.55;1.42;;;;;;;4.03;54.37;95556.84;5107155;28;20106;-75
2022/02/20 02:09:41;;;;;;;3.88;1.60;;;;;;;3.99;54.46;95567.72;5102734;28;20042;-76
2022/02/20 02:12:07;;;;;;;6.25;1.73;;;;;;;3.89;55.89;95557.03;5090448;28;20044;-76
2022/02/20 02:15:02;;;;;;;6.10;1.55;;;;;;;3.81;55.43;95539.94;5104046;28;20050;-75
2022/02/20 02:17:28;;;;;;;;;;;;;;;3.79;55.83;95551.59;5090826;28;20044;-76
2022/02/20 02:19:53;;;;;;;7.07;1.52;;;;;;;3.84;54.68;95517.88;5095831;28;19927;-76
2022/02/20 02:22:24;;;;;;;2.75;1.50;;;;;;;3.85;54.34;95529.91;5098875;28;20049;-75
2022/02/20 02:24:51;;;;;;;3.58;1.30;;;;;;;3.81;54.80;95528.75;5099890;28;20051;-75
2022/02/20 02:27:17;;;;;;;2.63;1.27;;;;;;;3.73;54.32;95542.09;5110452;28;20059;-74
2022/02/20 02:29:45;;;;;;;2.35;1.20;;;;;;;3.75;55.58;95521.84;5106908;28;20040;-75
2022/02/20 02:32:11;;;;;;;3.03;1.58;;;;;;;3.68;56.08;95523.75;5094258;27;20085;-75
2022/02/20 02:34:39;;;;;;;6.40;1.30;;;;;;;3.61;56.19;95529.84;5092584;28;20568;-75
2022/02/20 02:37:04;;;;;;;2.08;1.25;;;;;;;3.53;58.24;95532.78;5101519;27;20036;-75
2022/02/20 02:39:30;;;;;;;5.53;1.58;;;;;;;3.44;58.55;95529.72;5102475;28;20040;-75
2022/02/20 02:41:56;;;;;;;3.10;1.50;;;;;;;3.34;60.57;95555.47;5103635;28;20035;-75
2022/02/20 02:44:21;;;;;;;3.50;1.55;;;;;;;3.28;60.97;95536.34;5102669;28;20047;-74
2022/02/20 02:46:47;;;;;;;3.70;1.35;;;;;;;3.23;61.27;95544.03;5106303;28;20043;-74
2022/02/20 02:49:13;;;;;;;4.90;1.25;;;;;;;3.19;61.84;95535.09;5091121;28;20040;-74
2022/02/20 02:51:39;;;;;;;3.00;1.35;;;;;;;3.20;62.11;95575.66;5107432;28;20190;-74
2022/02/20 02:54:09;;;;;;;3.72;1.50;;;;;;;3.08;64.15;95556.66;5099896;28;20391;-74
2022/02/20 02:56:35;;;;;;;1.55;0.90;;;;;;;3.01;64.46;95553.34;5089480;28;20032;-75
2022/02/20 02:59:01;;;;;;;2.50;1.40;;;;;;;2.91;65.30;95575.44;5089383;28;20040;-74
2022/02/20 03:01:27;;;;;;;2.55;1.40;;;;;;;2.84;65.81;95561.72;5102695;28;20212;-73
2022/02/20 03:03:52;;;;;;;2.92;1.27;;;;;;;2.80;66.68;95550.19;5103571;28;20567;-74
2022/02/20 03:06:18;;;;;;;4.50;1.33;;;;;;;2.79;67.63;95551.22;5096659;28;20169;-75
2022/02/20 03:08:44;;;;;;;1.30;0.85;;;;;;;2.68;67.32;95551.94;5107552;28;20052;-74
2022/02/20 03:11:09;;;;;;;7.85;1.70;;;;;;;2.70;67.34;95578.50;5108013;28;20036;-74
2022/02/20 03:13:37;;;;;;;2.30;0.93;;;;;;;2.62;68.67;95578.81;5096384;28;20410;-73
2022/02/20 03:16:03;;;;;;;1.23;0.90;;;;;;;2.55;69.64;95600.44;5100659;28;20524;-75
2022/02/20 03:18:30;;;;;;;1.95;1.15;;;;;;;2.50;70.61;95592.50;5100093;28;20459;-74
2022/02/20 03:20:57;;;;;;;2.78;1.40;;;;;;;2.40;72.73;95587.03;5092777;28;20482;-74
2022/02/20 03:23:23;;;;;;;4.88;1.30;;;;;;;2.22;74.80;95595.56;5093728;28;20456;-74
2022/02/20 03:25:49;;;;;;;2.95;1.30;;;;;;;2.18;75.66;95595.19;5108017;28;20529;-74
2022/02/20 03:28:14;;;;;;;3.72;1.30;;;;;;;2.06;77.46;95591.72;5092790;28;20036;-74
2022/02/20 03:30:40;;;;;;;11.63;1.27;;;;;;;2.03;77.57;95597.34;5105553;28;20122;-73
2022/02/20 03:33:06;;;;;;;1.77;0.80;;;;;;;1.96;79.13;95591.41;5105626;28;20044;-74
2022/02/20 03:35:31;;;;;;;3.13;1.30;;;;;;;1.96;79.07;95592.19;5091055;28;20046;-74
2022/02/20 03:37:57;;;;;;;3.75;1.33;;;;;;;1.90;79.76;95593.06;5097709;28;20047;-74
2022/02/20 03:40:22;;;;;;;4.43;1.58;;;;;;;1.85;81.05;95591.09;5089128;28;20089;-74
2022/02/20 03:42:49;;;;;;;5.18;1.48;;;;;;;1.82;81.11;95594.09;5096438;28;20046;-74
2022/02/20 03:45:15;;;;;;;3.10;1.60;;;;;;;1.78;82.11;95600.75;5093182;28;20123;-74
2022/02/20 03:47:40;;;;;;;2.75;1.38;;;;;;;1.82;81.42;95596.69;5103768;28;20115;-75
2022/02/20 03:50:07;;;;;;;2.33;1.15;;;;;;;1.78;81.82;95579.97;5103720;28;20519;-74
2022/02/20 03:52:33;;;;;;;2.40;1.50;;;;;;;1.76;82.40;95586.38;5099379;28;20040;-74
2022/02/20 03:54:59;;;;;;;3.10;1.52;;;;;;;1.79;81.86;95586.75;5088766;28;20119;-74
2022/02/20 03:57:24;;;;;;;2.13;1.33;;;;;;;1.82;80.70;95575.94;5089030;28;20135;-75
2022/02/20 03:59:50;;;;;;;2.22;1.35;;;;;;;1.91;79.62;95584.25;5088747;28;20477;-75
2022/02/20 04:02:15;;;;;;;2.33;1.10;;;;;;;1.90;79.42;95593.06;5097913;28;20043;-75
2022/02/20 04:04:41;;;;;;;5.10;1.30;;;;;;;1.96;79.66;95573.25;5106862;28;20517;-75
2022/02/20 04:07:07;;;;;;;3.65;1.13;;;;;;;1.98;80.09;95590.19;5095447;28;20047;-74
2022/02/20 04:09:32;;;;;;;1.58;1.20;;;;;;;1.95;79.20;95580.22;5103766;28;20043;-74
2022/02/20 04:11:58;;;;;;;3.83;1.33;;;;;;;2.04;77.61;95588.53;5099822;28;20110;-74
2022/02/20 04:14:23;;;;;;;6.32;1.58;;;;;;;2.12;77.48;95580.47;5092709;28;20524;-75
2022/02/20 04:16:49;;;;;;;6.30;1.70;;;;;;;2.15;76.55;95580.06;5092429;28;20653;-74
2022/02/20 04:19:15;;;;;;;4.53;1.48;;;;;;;2.21;76.21;95589.59;5091429;28;20040;-74
2022/02/20 04:21:40;;;;;;;4.20;1.50;;;;;;;2.27;75.81;95587.13;5092534;28;20562;-74
2022/02/20 04:24:06;;;;;;;8.23;1.50;;;;;;;2.30;75.02;95591.91;5101620;28;20051;-74
2022/02/20 04:26:31;;;;;;;3.20;1.30;;;;;;;2.40;73.44;95576.63;5101479;28;20124;-74
2022/02/20 04:28:57;;;;;;;2.80;1.48;;;;;;;2.38;75.12;95570.84;5097463;28;20039;-74
2022/02/20 04:31:22;;;;;;;3.30;1.63;;;;;;;2.50;73.08;95587.31;5105806;28;20421;-75
2022/02/20 04:33:48;;;;;;;3.30;1.55;;;;;;;2.48;73.07;95573.72;5102214;28;20088;-74
2022/02/20 04:36:14;;;;;;;0.82;0.73;;;;;;;2.57;71.29;95575.06;5092932;27;20059;-74
2022/02/20 04:38:40;;;;;;;3.53;1.35;;;;;;;2.67;71.48;95581.53;5090904;28;20036;-75
2022/02/20 04:41:05;;;;;;;1.90;1.30;;;;;;;2.68;71.02;95572.72;5091951;28;20429;-75
2022/02/20 04:43:31;;;;;;;4.40;1.10;;;;;;;2.68;71.46;95572.72;5105359;28;20093;-74
2022/02/20 04:45:57;;;;;;;3.58;1.52;;;;;;;2.72;70.99;95568.69;5097740;28;20044;-75
2022/02/20 04:48:22;;;;;;;2.58;1.42;;;;;;;2.74;71.34;95571.84;5097747;28;20051;-74
2022/02/20 04:50:48;;;;;;;3.78;1.40;;;;;;;2.72;72.02;95579.09;5092392;28;20044;-74
2022/02/20 04:53:15;;;;;;;4.65;1.85;;;;;;;2.77;71.07;95561.84;5098195;28;20039;-74
2022/02/20 04:55:41;;;;;;;3.95;1.70;;;;;;;2.76;70.65;95556.84;5103555;28;20031;-74
2022/02/20 04:58:06;;;;;;;2.97;1.40;;;;;;;2.81;70.88;95567.38;5101058;28;20074;-74
2022/02/20 05:00:32;;;;;;;6.80;1.58;;;;;;;2.87;70.25;95576.88;5091476;28;20044;-75
2022/02/20 05:02:57;;;;;;;2.45;1.27;;;;;;;2.89;69.40;95559.28;5103209;28;20048;-74
2022/02/20 05:05:23;;;;;;;4.25;1.50;;;;;;;2.91;69.62;95559.84;5104890;28;20044;-74
2022/02/20 05:07:49;;;;;;;4.05;1.42;;;;;;;2.99;70.09;95565.75;5103599;28;20031;-74
2022/02/20 05:10:14;;;;;;;6.28;1.73;;;;;;;3.02;69.26;95562.75;5097309;27;20409;-75
2022/02/20 05:12:40;;;;;;;3.63;1.85;;;;;;;3.05;70.06;95583.09;5103508;28;20036;-74
2022/02/20 05:15:05;;;;;;;2.40;1.23;;;;;;;3.08;69.80;95567.84;5101133;28;20036;-74
2022/02/20 05:17:31;;;;;;;2.92;1.65;;;;;;;3.13;69.55;95572.38;5091225;28;20438;-74
2022/02/20 05:19:57;;;;;;;4.10;1.58;;;;;;;3.14;68.84;95571.38;5095680;28;20041;-74
2022/02/20 05:22:22;;;;;;;7.05;1.88;;;;;;;3.16;69.05;95579.75;5103981;28;20036;-74
2022/02/20 05:24:50;;;;;;;5.32;1.38;;;;;;;3.19;69.29;95574.09;5101589;28;20055;-74
2022/02/20 05:27:16;;;;;;;7.20;1.50;;;;;;;3.28;68.56;95577.19;5108074;28;20043;-75
2022/02/20 05:29:41;;;;;;;8.60;1.73;;;;;;;3.29;69.47;95573.56;5106848;28;20552;-74
2022/02/20 05:32:07;;;;;;;6.78;1.80;;;;;;;3.29;68.86;95579.56;5090560;28;20474;-74
2022/02/20 05:34:33;;;;;;;5.28;1.73;;;;;;;3.29;68.90;95563.97;5090001;28;20039;-74
2022/02/20 05:36:58;;;;;;;5.13;1.60;;;;;;;3.33;68.38;95579.91;5090420;28;20100;-75
2022/02/20 05:39:24;;;;;;;6.78;1.70;;;;;;;3.41;67.84;95577.00;5090754;28;20399;-75
2022/02/20 05:41:50;;;;;;;5.28;1.30;;;;;;;3.41;67.52;95566.59;5090263;28;20036;-74
2022/02/20 05:44:15;;;;;;;2.83;1.60;;;;;;;3.36;67.77;95569.06;5091411;28;20044;-74
2022/02/20 05:46:40;;;;;;;3.65;1.55;;;;;;;3.42;67.30;95573.38;5096973;28;20043;-73
2022/02/20 05:49:06;;;;;;;4.65;1.80;;;;;;;3.38;67.05;95571.44;5111492;28;20043;-74
2022/02/20 05:51:32;;;;;;;2.92;1.55;;;;;;;3.46;67.15;95578.91;5096698;28;20044;-74
2022/02/20 05:53:58;;;;;;;6.85;1.52;;;;;;;3.49;67.13;95578.47;5091225;28;21914;-75
2022/02/20 05:56:24;;;;;;;7.18;1.77;;;;;;;3.51;67.58;95575.69;5090693;28;20059;-74
2022/02/20 05:58:49;;;;;;;6.60;1.65;;;;;;;3.52;66.65;95583.25;5091012;28;20040;-74
2022/02/20 06:01:15;;;;;;;2.80;1.48;;;;;;;3.49;66.93;95583.69;5097759;28;20039;-76
2022/02/20 06:03:41;;;;;;;4.68;1.63;;;;;;;3.54;67.19;95580.44;5100907;28;20443;-74
2022/02/20 06:06:06;;;;;;;5.15;1.40;;;;;;;3.57;66.85;95595.59;5105512;28;20058;-74
2022/02/20 06:08:32;;;;;;;3.42;1.45;;;;;;;3.58;66.60;95587.56;5097803;28;20389;-74
2022/02/20 06:10:57;;;;;;;6.70;1.80;;;;;;;3.58;66.75;95597.97;5099107;28;20523;-74
2022/02/20 06:13:23;;;;;;;7.53;1.50;;;;;;;3.61;66.44;95601.94;5091352;28;20047;-74
2022/02/20 06:15:49;;;;;;;3.20;1.80;;;;;;;3.63;66.62;95621.53;5092694;28;20516;-75
2022/02/20 06:18:15;;;;;;;3.75;1.38;;;;;;;3.67;66.35;95631.50;5090434;28;20040;-74
2022/02/20 06:20:40;;;;;;;3.70;1.30;;;;;;;3.64;66.86;95623.09;5102584;28;20036;-74
2022/02/20 06:23:06;;;;;;;2.85;1.60;;;;;;;3.69;66.53;95632.06;5107737;28;20036;-75
2022/02/20 06:25:31;;;;;;;5.85;2.05;;;;;;;3.73;66.42;95639.19;5096557;28;20055;-74
2022/02/20 06:27:57;;;;;;;3.67;1.83;;;;;;;3.75;66.92;95644.16;5109225;28;20092;-74
2022/02/20 06:30:23;;;;;;;5.63;1.75;;;;;;;3.74;66.44;95632.19;5099537;28;20476;-74
2022/02/20 06:32:49;;;;;;;3.50;1.50;;;;;;;3.66;67.44;95648.13;5092448;28;20036;-74
2022/02/20 06:35:14;;;;;;;3.85;1.20;;;;;;;3.73;66.63;95639.19;5094430;28;20121;-71
2022/02/20 06:37:40;;;;;;;6.00;2.20;;;;;;;3.92;67.18;95645.13;5103749;27;20456;-75
2022/02/20 06:40:06;;;;;;;3.35;1.70;;;;;;;3.94;65.93;95634.50;5090526;28;20040;-75
2022/02/20 06:42:32;;;;;;;4.28;1.70;;;;;;;3.82;66.59;95634.44;5104003;28;20047;-75
2022/02/20 06:44:58;;;;;;;4.20;1.40;;;;;;;3.80;66.85;95641.72;5099899;28;20043;-73
2022/02/20 06:47:23;;;;;;;2.25;1.30;;;;;;;3.85;66.17;95641.03;5097356;28;20044;-73
2022/02/20 06:49:49;;;;;;;6.80;2.10;;;;;;;3.81;66.68;95638.88;5098752;28;20038;-73
2022/02/20 06:52:15;;;;;;;4.72;1.80;;;;;;;3.85;66.77;95654.88;5104349;28;20040;-74
2022/02/20 06:54:40;;;;;;;4.47;1.45;;;;;;;3.85;66.43;95654.88;5093194;28;20405;-74
2022/02/20 06:57:06;;;;;;;3.72;1.58;;;;;;;3.89;66.21;95661.19;5091074;28;20441;-73
2022/02/20 06:59:31;;;;;;;8.43;1.70;;;;;;;3.89;66.83;95658.56;5094229;28;20036;-74
2022/02/20 07:01:57;;;;;;;7.20;1.70;;;;;;;3.84;67.50;95658.47;5095291;28;20051;-75
2022/02/20 07:04:22;;;;;;;6.45;1.55;;;;;;;3.93;66.54;95664.94;5102215;27;20042;-74
2022/02/20 07:06:48;;;;;;;2.83;1.40;;;;;;;3.94;66.83;95658.72;5102775;28;20632;-73
2022/02/20 07:09:14;;;;;;;4.80;1.70;;;;;;;3.94;66.99;95669.13;5109439;28;20055;-73
2022/02/20 07:11:41;;;;;;;2.75;1.50;;;;;;;3.93;66.61;95662.31;5099558;28;20035;-73
2022/02/20 07:14:07;;;;;;;6.20;1.80;;;;;;;4.02;66.52;95669.81;5091723;28;20505;-74
2022/02/20 07:16:33;;;;;;;4.70;1.50;;;;;;;4.03;66.83;95671.44;5095026;27;20039;-73
2022/02/20 07:18:59;;;;;;;3.30;1.38;;;;;;;4.04;66.70;95683.41;5095203;28;20044;-74
2022/02/20 07:21:26;;;;;;;6.90;1.90;;;;;;;4.07;66.56;95681.16;5107124;28;20541;-73
2022/02/20 07:23:52;;;;;;;5.10;1.70;;;;;;;4.02;66.96;95669.81;5093060;28;20042;-73
2022/02/20 07:26:19;;;;;;;3.50;1.35;;;;;;;3.95;66.96;95669.91;5092280;28;20111;-74
2022/02/20 07:28:44;;;;;;;7.32;1.77;;;;;;;4.04;66.78;95667.78;5093563;28;20047;-73
2022/02/20 07:31:10;;;;;;;5.05;1.50;;;;;;;3.99;67.09;95682.28;5095022;28;20409;-73
2022/02/20 07:33:36;;;;;;;5.82;1.55;;;;;;;4.09;66.75;95671.31;5096071;28;20044;-74
2022/02/20 07:36:02;;;;;;;2.88;1.60;;;;;;;4.15;66.67;95680.03;5102246;28;20055;-73
2022/02/20 07:38:27;;;;;;;4.32;1.65;;;;;;;4.11;66.86;95689.34;5097654;28;20040;-73
2022/02/20 07:40:53;;;;;;;4.18;1.45;;;;;;;4.19;66.79;95683.78;5103780;28;20036;-71
2022/02/20 07:43:19;;;;;;;4.75;1.80;;;;;;;4.30;66.09;95677.78;5093462;28;20047;-71
2022/02/20 07:45:45;;;;;;;2.47;1.60;;;;;;;4.39;66.36;95690.50;5096324;28;20081;-73
2022/02/20 07:48:11;;;;;;;2.97;1.45;;;;;;;4.46;65.74;95691.19;5104226;28;20039;-72
2022/02/20 07:50:38;;;;;;;2.42;1.60;;;;;;;4.48;65.82;95691.75;5107268;28;20192;-73
2022/02/20 07:53:05;;;;;;;2.58;1.55;;;;;;;4.47;65.83;95698.00;5088986;28;20553;-73
2022/02/20 07:55:32;;;;;;;3.70;1.50;;;;;;;4.50;65.55;95707.97;5097387;28;20032;-74
2022/02/20 07:58:03;;;;;;;3.45;1.42;;;;;;;4.49;65.54;95706.38;5098021;28;20075;-76
2022/02/20 08:00:30;;;;;;;7.38;1.80;;;;;;;4.49;65.91;95706.38;5102455;28;20145;-73
2022/02/20 08:03:00;;;;;;;3.60;1.40;;;;;;;4.48;65.64;95704.78;5098931;28;20039;-73
2022/02/20 08:05:26;;;;;;;7.38;1.52;;;;;;;4.51;65.58;95714.75;5097511;28;20451;-74
2022/02/20 08:07:52;;;;;;;6.28;1.52;;;;;;;4.51;66.18;95699.09;5108075;28;20048;-72
2022/02/20 08:10:18;;;;;;;4.68;1.70;;;;;;;4.54;65.83;95714.31;5101775;28;20045;-72
2022/02/20 08:12:44;;;;;;;4.15;1.85;;;;;;;4.56;65.08;95711.47;5095604;28;20103;-73
2022/02/20 08:15:09;;;;;;;8.98;1.90;;;;;;;4.59;65.60;95708.41;5098059;28;20058;-72
2022/02/20 08:17:44;;;;;;;3.17;1.35;;;;;;;4.56;65.79;95707.06;5095943;28;20485;-72
2022/02/20 08:20:11;;;;;;;4.38;1.60;;;;;;;4.57;65.59;95718.25;5095333;28;20047;-73
2022/02/20 08:22:37;;;;;;;4.53;1.83;;;;;;;4.67;65.18;95719.31;5104609;28;20065;-72
2022/02/20 08:25:02;;;;;;;8.00;2.03;;;;;;;4.62;65.09;95711.34;5103514;28;20467;-72
2022/02/20 08:27:33;;;;;;;9.63;2.03;;;;;;;4.66;64.83;95716.94;5092852;28;20040;-73
2022/02/20 08:29:58;;;;;;;3.70;1.77;;;;;;;4.58;65.16;95725.84;5098840;28;20042;-74
2022/02/20 08:32:24;;;;;;;3.55;1.77;;;;;;;4.64;64.82;95730.19;5099910;28;20409;-73
2022/02/20 08:34:49;;;;;;;5.05;1.85;;;;;;;4.55;64.85;95726.31;5104688;28;20130;-71
2022/02/20 08:37:15;;;;;;;7.28;1.70;;;;;;;4.63;65.99;95720.78;5100925;28;20044;-72
2022/02/20 08:39:40;;;;;;;5.47;1.70;;;;;;;4.54;65.46;95714.31;5094057;28;20169;-72
2022/02/20 08:42:07;;;;;;;7.75;2.03;;;;;;;4.57;65.25;95723.47;5088627;28;20047;-73
2022/02/20 08:44:34;;;;;;;5.82;1.48;;;;;;;4.69;64.53;95721.69;5087586;28;20071;-73
2022/02/20 08:47:00;;;;;;;8.23;1.88;;;;;;;4.68;64.96;95728.72;5090561;28;20052;-71
2022/02/20 08:49:26;;;;;;;2.38;1.70;;;;;;;4.79;64.93;95723.72;5099951;28;20102;-72
2022/02/20 08:51:52;;;;;;;3.22;1.55;;;;;;;4.77;64.40;95717.94;5101395;28;20035;-72
2022/02/20 08:54:17;;;;;;;6.82;1.80;;;;;;;4.81;64.72;95719.88;5102325;28;20043;-72
2022/02/20 08:56:43;;;;;;;6.30;2.10;;;;;;;4.83;64.27;95717.03;5094147;27;20494;-71
2022/02/20 08:59:09;;;;;;;4.50;1.70;;;;;;;4.97;64.66;95707.97;5099728;28;20410;-72
2022/02/20 09:01:35;;;;;;;5.25;1.90;;;;;;;5.05;64.08;95708.63;5104876;27;20507;-71
2022/02/20 09:04:04;;;;;;;3.33;1.42;;;;;;;5.24;63.27;95717.09;5102381;28;20066;-71
2022/02/20 09:06:33;;;;;;;2.92;1.40;;;;;;;5.28;63.37;95708.59;5104784;28;20064;-70
2022/02/20 09:09:00;;;;;;;3.95;1.55;;;;;;;5.36;63.02;95704.84;5103379;28;20115;-72
2022/02/20 09:11:28;;;;;;;3.78;1.50;;;;;;;5.48;63.11;95689.13;5099962;27;20040;-72
2022/02/20 09:13:53;;;;;;;6.03;1.80;;;;;;;5.54;62.94;95693.41;5101906;28;20044;-71
2022/02/20 09:16:19;;;;;;;5.45;1.80;;;;;;;5.62;62.50;95695.66;5098048;28;20575;-72
2022/02/20 09:18:45;;;;;;;4.85;1.70;;;;;;;5.68;62.59;95692.13;5105423;27;20471;-71
2022/02/20 09:21:11;;;;;;;6.57;1.80;;;;;;;5.88;61.98;95683.06;5113610;27;20044;-73
2022/02/20 09:23:37;;;;;;;5.90;1.70;;;;;;;5.79;61.94;95687.06;5102080;28;20670;-72
2022/02/20 09:26:05;;;;;;;3.47;1.33;;;;;;;5.94;61.38;95684.72;5095307;28;20047;-71
2022/02/20 09:28:30;;;;;;;3.55;1.52;;;;;;;5.91;61.48;95677.38;5092856;28;20072;-71
2022/02/20 09:30:56;;;;;;;4.22;1.67;;;;;;;6.18;61.12;95692.50;5092768;28;20067;-74
2022/02/20 09:33:21;;;;;;;3.47;1.50;;;;;;;6.31;61.03;95688.78;5098662;28;20112;-73
2022/02/20 09:35:47;;;;;;;6.10;1.88;;;;;;;6.36;60.64;95681.78;5112678;28;20066;-73
2022/02/20 09:38:12;;;;;;;4.28;1.70;;;;;;;6.45;60.79;95673.53;5099110;28;20048;-73
2022/02/20 09:40:38;;;;;;;5.53;2.50;;;;;;;6.66;60.78;95691.13;5096994;28;20093;-73
2022/02/20 09:43:04;;;;;;;5.75;1.55;;;;;;;6.72;59.54;95674.47;5092342;28;20044;-73
2022/02/20 09:45:30;;;;;;;5.45;2.17;;;;;;;6.94;59.51;95676.34;5100663;28;20101;-71
2022/02/20 09:48:01;;;;;;;2.05;1.35;;;;;;;7.13;59.13;95668.22;5104752;28;20498;-73
2022/02/20 09:50:28;;;;;;;4.90;1.55;;;;;;;7.16;59.02;95662.47;5100259;28;20096;-72
2022/02/20 09:52:54;;;;;;;6.10;1.80;;;;;;;7.24;59.05;95648.94;5100246;28;20182;-74
2022/02/20 09:55:20;;;;;;;5.05;1.65;;;;;;;7.66;57.85;95655.41;5104551;28;20676;-74
2022/02/20 09:57:45;;;;;;;2.55;1.42;;;;;;;7.65;57.57;95640.75;5112284;28;20085;-73
2022/02/20 10:00:11;;;;;;;2.95;1.48;;;;;;;7.65;57.74;95652.00;5111819;28;20519;-73
2022/02/20 10:02:40;;;;;;;3.88;1.70;;;;;;;7.76;57.15;95637.97;5101414;28;20040;-73
2022/02/20 10:05:08;;;;;;;5.07;1.50;;;;;;;7.79;56.95;95629.63;5101378;28;20532;-73
2022/02/20 10:07:36;;;;;;;3.78;1.33;;;;;;;7.92;56.87;95630.28;5111750;28;20055;-73
2022/02/20 10:10:06;;;;;;;4.10;1.50;;;;;;;7.73;56.18;95641.09;5114068;28;20048;-73
2022/02/20 10:12:32;;;;;;;3.72;1.30;;;;;;;7.57;57.08;95649.84;5094957;28;20040;-72
2022/02/20 10:14:58;;;;;;;2.83;1.38;;;;;;;7.90;56.02;95629.72;5099048;28;20051;-74
2022/02/20 10:17:27;;;;;;;4.45;1.48;;;;;;;8.96;54.29;95637.81;5100137;28;20044;-74
2022/02/20 10:19:58;;;;;;;3.00;1.30;;;;;;;8.92;53.05;95641.97;5098604;28;20111;-74
2022/02/20 10:22:36;;;;;;;5.07;1.15;;;;;;;8.40;54.12;95639.00;5095340;28;20048;-75
2022/02/20 10:25:12;;;;;;;4.20;1.42;;;;;;;9.03;53.28;95646.22;5097633;28;20070;-75
2022/02/20 10:27:50;;;;;;;6.63;1.52;;;;;;;8.89;53.42;95629.38;5106873;28;20054;-75
2022/02/20 10:30:27;;;;;;;3.60;1.30;;;;;;;8.72;54.04;95622.47;5119484;28;20044;-75
2022/02/20 10:33:16;;;;;;;5.07;1.30;;;;;;;9.02;52.68;95623.66;5120325;28;20095;-75
2022/02/20 10:35:50;;;;;;;2.38;1.20;;;;;;;8.96;53.25;95608.94;5104081;28;20040;-74
2022/02/20 10:38:21;;;;;;;5.40;1.37;;;;;;;9.66;51.60;95612.03;5105127;28;20047;-74
2022/02/20 10:40:51;;;;;;;3.80;1.60;;;;;;;9.38;51.89;95597.53;5110250;28;20776;-75
2022/02/20 10:43:26;;;;;;;1.13;0.90;;;;;;;9.12;52.19;95591.41;5098484;28;20036;-75
2022/02/20 10:46:04;;;;;;;3.00;1.10;;;;;;;8.89;54.28;95608.38;5100357;28;20046;-79
2022/02/20 10:48:40;;;;;;;3.67;1.17;;;;;;;8.81;53.19;95602.56;5093794;28;20559;-72
2022/02/20 10:51:06;;;;;;;4.03;1.25;;;;;;;8.87;53.36;95599.97;5099596;28;20044;-76
2022/02/20 10:53:33;;;;;;;4.05;1.20;;;;;;;8.58;53.74;95597.72;5095223;28;20047;-74
2022/02/20 10:55:59;;;;;;;4.07;1.60;;;;;;;8.58;54.29;95592.50;5104832;28;20413;-77
2022/02/20 10:58:30;;;;;;;1.38;1.08;;;;;;;8.49;54.58;95594.78;5109303;27;20085;-79
2022/02/20 11:00:58;;;;;;;5.88;1.30;;;;;;;8.72;53.98;95583.13;5099813;28;20036;-74
2022/02/20 11:03:26;;;;;;;2.85;1.08;;;;;;;8.91;53.67;95569.56;5105886;28;20050;-77
2022/02/20 11:05:53;;;;;;;3.70;1.00;;;;;;;8.85;53.54;95574.00;5100304;28;20067;-74
2022/02/20 11:08:25;;;;;;;3.10;1.10;;;;;;;8.99;53.61;95561.16;5110529;28;20051;-75
2022/02/20 11:10:52;;;;;;;3.40;1.05;;;;;;;9.16;52.79;95556.47;5096235;28;20133;-76
2022/02/20 11:13:19;;;;;;;2.22;1.27;;;;;;;9.41;51.43;95552.34;5093197;28;20036;-75
2022/02/20 11:15:50;;;;;;;3.00;1.35;;;;;;;9.52;51.65;95543.44;5096690;28;20036;-75
2022/02/20 11:18:19;;;;;;;1.95;1.10;;;;;;;9.67;52.35;95555.00;5104189;28;20036;-73
2022/02/20 11:20:48;;;;;;;5.32;1.30;;;;;;;9.83;50.96;95553.97;5093032;28;20032;-75
2022/02/20 11:23:21;;;;;;;4.90;1.45;;;;;;;9.95;50.87;95550.28;5103611;28;20606;-75
2022/02/20 11:25:49;;;;;;;2.72;0.88;;;;;;;9.96;50.23;95557.13;5094181;28;20043;-73
2022/02/20 11:28:15;;;;;;;6.28;1.55;;;;;;;10.55;49.60;95553.88;5093287;28;20036;-74
2022/02/20 11:30:42;;;;;;;2.58;1.40;;;;;;;10.57;48.37;95551.78;5098468;28;20043;-76
2022/02/20 11:33:10;;;;;;;3.50;1.50;;;;;;;11.31;47.78;95543.31;5095336;28;20044;-75
2022/02/20 11:35:44;;;;;;;6.72;1.27;;;;;;;11.09;46.50;95554.19;5106847;28;20512;-77
2022/02/20 11:38:15;;;;;;;2.80;1.10;;;;;;;11.19;47.07;95548.91;5102255;28;20035;-74